sensor_id;sensor_type;location;lat;lon;timestamp;P1;durP1;ratioP1;P2;durP2;ratioP2
51010;SDS011;37038;50.182;8.624;2023-02-15T00:01:09;150.55;;;50.67;;
51010;SDS011;37038;50.182;8.624;2023-02-15T00:03:59;152.95;;;53.42;;
51010;SDS011;37038;50.182;8.624;2023-02-15T00:06:47;149.60;;;53.63;;
51010;SDS011;37038;50.182;8.624;2023-02-15T00:09:35;152.60;;;54.35;;
51010;SDS011;37038;50.182;8.624;2023-02-15T00:12:24;145.88;;;53.20;;
51010;SDS011;37038;50.182;8.624;2023-02-15T00:15:12;143.60;;;52.17;;
51010;SDS011;37038;50.182;8.624;2023-02-15T00:18:00;143.10;;;53.65;;
51010;SDS011;37038;50.182;8.624;2023-02-15T00:20:49;148.60;;;54.25;;
51010;SDS011;37038;50.182;8.624;2023-02-15T00:23:37;155.45;;;54.63;;
51010;SDS011;37038;50.182;8.624;2023-02-15T00:26:25;136.68;;;52.92;;
51010;SDS011;37038;50.182;8.624;2023-02-15T00:29:15;137.02;;;53.60;;
51010;SDS011;37038;50.182;8.624;2023-02-15T00:32:04;135.15;;;52.85;;
51010;SDS011;37038;50.182;8.624;2023-02-15T00:34:53;134.18;;;52.53;;
51010;SDS011;37038;50.182;8.624;2023-02-15T00:37:41;142.68;;;52.28;;
51010;SDS011;37038;50.182;8.624;2023-02-15T00:40:29;135.43;;;51.15;;
51010;SDS011;37038;50.182;8.624;2023-02-15T00:43:18;119.50;;;49.92;;
51010;SDS011;37038;50.182;8.624;2023-02-15T00:46:06;137.60;;;53.00;;
51010;SDS011;37038;50.182;8.624;2023-02-15T00:48:54;121.97;;;49.05;;
51010;SDS011;37038;50.182;8.624;2023-02-15T00:51:42;121.03;;;50.40;;
51010;SDS011;37038;50.182;8.624;2023-02-15T00:54:30;126.22;;;49.78;;
51010;SDS011;37038;50.182;8.624;2023-02-15T00:57:19;131.70;;;51.08;;
51010;SDS011;37038;50.182;8.624;2023-02-15T01:00:07;133.18;;;50.20;;
51010;SDS011;37038;50.182;8.624;2023-02-15T01:02:56;130.15;;;51.50;;
51010;SDS011;37038;50.182;8.624;2023-02-15T01:05:44;108.97;;;48.65;;
51010;SDS011;37038;50.182;8.624;2023-02-15T01:08:33;110.68;;;48.33;;
51010;SDS011;37038;50.182;8.624;2023-02-15T01:11:23;100.97;;;46.55;;
51010;SDS011;37038;50.182;8.624;2023-02-15T01:14:12;98.80;;;45.80;;
51010;SDS011;37038;50.182;8.624;2023-02-15T01:17:01;104.18;;;47.00;;
51010;SDS011;37038;50.182;8.624;2023-02-15T01:19:49;104.82;;;48.17;;
51010;SDS011;37038;50.182;8.624;2023-02-15T01:22:38;108.35;;;47.72;;
51010;SDS011;37038;50.182;8.624;2023-02-15T01:25:26;108.07;;;48.88;;
51010;SDS011;37038;50.182;8.624;2023-02-15T01:28:14;103.45;;;47.15;;
51010;SDS011;37038;50.182;8.624;2023-02-15T01:31:06;98.55;;;45.60;;
51010;SDS011;37038;50.182;8.624;2023-02-15T01:34:01;106.85;;;47.78;;
51010;SDS011;37038;50.182;8.624;2023-02-15T01:36:49;102.75;;;47.40;;
51010;SDS011;37038;50.182;8.624;2023-02-15T01:39:37;93.72;;;46.67;;
51010;SDS011;37038;50.182;8.624;2023-02-15T01:42:26;95.35;;;44.03;;
51010;SDS011;37038;50.182;8.624;2023-02-15T01:45:20;92.20;;;43.20;;
51010;SDS011;37038;50.182;8.624;2023-02-15T01:48:15;98.10;;;47.03;;
51010;SDS011;37038;50.182;8.624;2023-02-15T01:51:10;104.65;;;48.35;;
51010;SDS011;37038;50.182;8.624;2023-02-15T01:54:05;102.57;;;46.70;;
51010;SDS011;37038;50.182;8.624;2023-02-15T01:57:05;99.97;;;47.95;;
51010;SDS011;37038;50.182;8.624;2023-02-15T01:59:58;90.13;;;44.25;;
51010;SDS011;37038;50.182;8.624;2023-02-15T02:02:50;98.65;;;48.17;;
51010;SDS011;37038;50.182;8.624;2023-02-15T02:05:41;97.10;;;47.00;;
51010;SDS011;37038;50.182;8.624;2023-02-15T02:08:30;100.18;;;46.78;;
51010;SDS011;37038;50.182;8.624;2023-02-15T02:11:19;99.63;;;48.10;;
51010;SDS011;37038;50.182;8.624;2023-02-15T02:14:07;105.25;;;47.72;;
51010;SDS011;37038;50.182;8.624;2023-02-15T02:17:17;94.35;;;47.63;;
51010;SDS011;37038;50.182;8.624;2023-02-15T02:20:17;106.60;;;48.42;;
51010;SDS011;37038;50.182;8.624;2023-02-15T02:30:36;112.40;;;48.53;;
51010;SDS011;37038;50.182;8.624;2023-02-15T02:33:46;117.60;;;49.70;;
51010;SDS011;37038;50.182;8.624;2023-02-15T02:42:39;117.80;;;51.85;;
51010;SDS011;37038;50.182;8.624;2023-02-15T02:45:35;122.38;;;51.35;;
51010;SDS011;37038;50.182;8.624;2023-02-15T02:48:32;126.65;;;52.88;;
51010;SDS011;37038;50.182;8.624;2023-02-15T02:51:22;112.28;;;49.83;;
51010;SDS011;37038;50.182;8.624;2023-02-15T02:54:14;131.32;;;52.85;;
51010;SDS011;37038;50.182;8.624;2023-02-15T02:57:03;110.70;;;48.40;;
51010;SDS011;37038;50.182;8.624;2023-02-15T02:59:56;121.80;;;52.92;;
51010;SDS011;37038;50.182;8.624;2023-02-15T03:02:47;129.10;;;52.35;;
51010;SDS011;37038;50.182;8.624;2023-02-15T03:05:43;129.30;;;53.97;;
51010;SDS011;37038;50.182;8.624;2023-02-15T03:08:39;139.25;;;55.80;;
51010;SDS011;37038;50.182;8.624;2023-02-15T03:11:38;131.90;;;54.10;;
51010;SDS011;37038;50.182;8.624;2023-02-15T03:14:26;137.68;;;54.08;;
51010;SDS011;37038;50.182;8.624;2023-02-15T03:17:15;124.55;;;54.88;;
51010;SDS011;37038;50.182;8.624;2023-02-15T03:20:08;133.85;;;54.65;;
51010;SDS011;37038;50.182;8.624;2023-02-15T03:23:06;132.73;;;54.72;;
51010;SDS011;37038;50.182;8.624;2023-02-15T03:26:00;122.40;;;52.15;;
51010;SDS011;37038;50.182;8.624;2023-02-15T03:28:50;124.28;;;53.42;;
51010;SDS011;37038;50.182;8.624;2023-02-15T03:31:43;124.38;;;53.53;;
51010;SDS011;37038;50.182;8.624;2023-02-15T03:34:34;128.10;;;54.70;;
51010;SDS011;37038;50.182;8.624;2023-02-15T03:37:34;120.80;;;54.10;;
51010;SDS011;37038;50.182;8.624;2023-02-15T03:40:33;116.20;;;52.05;;
51010;SDS011;37038;50.182;8.624;2023-02-15T03:46:49;123.97;;;54.22;;
51010;SDS011;37038;50.182;8.624;2023-02-15T03:50:00;127.50;;;53.28;;
51010;SDS011;37038;50.182;8.624;2023-02-15T03:53:23;138.93;;;54.45;;
51010;SDS011;37038;50.182;8.624;2023-02-15T03:56:13;131.52;;;53.42;;
51010;SDS011;37038;50.182;8.624;2023-02-15T03:59:01;127.53;;;52.20;;
51010;SDS011;37038;50.182;8.624;2023-02-15T04:02:20;129.70;;;53.63;;
51010;SDS011;37038;50.182;8.624;2023-02-15T04:05:12;127.33;;;52.17;;
51010;SDS011;37038;50.182;8.624;2023-02-15T04:08:00;122.95;;;53.95;;
51010;SDS011;37038;50.182;8.624;2023-02-15T04:10:49;106.80;;;51.53;;
51010;SDS011;37038;50.182;8.624;2023-02-15T04:13:39;115.07;;;51.45;;
51010;SDS011;37038;50.182;8.624;2023-02-15T04:16:28;125.68;;;52.95;;
51010;SDS011;37038;50.182;8.624;2023-02-15T04:19:17;120.10;;;50.58;;
51010;SDS011;37038;50.182;8.624;2023-02-15T04:22:24;121.82;;;52.58;;
51010;SDS011;37038;50.182;8.624;2023-02-15T04:25:31;125.63;;;52.97;;
51010;SDS011;37038;50.182;8.624;2023-02-15T04:28:22;112.47;;;50.83;;
51010;SDS011;37038;50.182;8.624;2023-02-15T04:31:13;120.20;;;52.45;;
51010;SDS011;37038;50.182;8.624;2023-02-15T04:34:02;122.95;;;53.10;;
51010;SDS011;37038;50.182;8.624;2023-02-15T04:36:50;124.60;;;52.22;;
51010;SDS011;37038;50.182;8.624;2023-02-15T04:39:39;116.13;;;51.42;;
51010;SDS011;37038;50.182;8.624;2023-02-15T04:42:27;127.65;;;52.10;;
51010;SDS011;37038;50.182;8.624;2023-02-15T04:45:15;133.13;;;55.80;;
51010;SDS011;37038;50.182;8.624;2023-02-15T04:48:04;125.00;;;53.08;;
51010;SDS011;37038;50.182;8.624;2023-02-15T04:50:52;123.60;;;53.20;;
51010;SDS011;37038;50.182;8.624;2023-02-15T04:53:41;118.82;;;52.55;;
51010;SDS011;37038;50.182;8.624;2023-02-15T04:56:29;120.95;;;51.80;;
51010;SDS011;37038;50.182;8.624;2023-02-15T04:59:18;129.68;;;51.88;;
51010;SDS011;37038;50.182;8.624;2023-02-15T05:02:06;117.85;;;51.97;;
51010;SDS011;37038;50.182;8.624;2023-02-15T05:04:55;125.25;;;52.65;;
51010;SDS011;37038;50.182;8.624;2023-02-15T05:07:43;134.57;;;53.63;;
51010;SDS011;37038;50.182;8.624;2023-02-15T05:10:31;141.38;;;54.53;;
51010;SDS011;37038;50.182;8.624;2023-02-15T05:13:19;139.00;;;53.17;;
51010;SDS011;37038;50.182;8.624;2023-02-15T05:16:08;164.82;;;57.58;;
51010;SDS011;37038;50.182;8.624;2023-02-15T05:18:56;160.27;;;55.58;;
51010;SDS011;37038;50.182;8.624;2023-02-15T05:21:45;159.27;;;59.15;;
51010;SDS011;37038;50.182;8.624;2023-02-15T05:24:33;158.60;;;57.38;;
51010;SDS011;37038;50.182;8.624;2023-02-15T05:27:40;158.13;;;57.20;;
51010;SDS011;37038;50.182;8.624;2023-02-15T05:30:47;162.88;;;58.35;;
51010;SDS011;37038;50.182;8.624;2023-02-15T05:33:36;195.00;;;66.43;;
51010;SDS011;37038;50.182;8.624;2023-02-15T05:36:24;200.27;;;63.45;;
51010;SDS011;37038;50.182;8.624;2023-02-15T05:39:12;228.43;;;65.95;;
51010;SDS011;37038;50.182;8.624;2023-02-15T05:42:04;217.05;;;68.10;;
51010;SDS011;37038;50.182;8.624;2023-02-15T05:44:53;188.65;;;63.83;;
51010;SDS011;37038;50.182;8.624;2023-02-15T05:47:41;192.93;;;65.28;;
51010;SDS011;37038;50.182;8.624;2023-02-15T05:50:32;199.50;;;67.03;;
51010;SDS011;37038;50.182;8.624;2023-02-15T05:53:23;192.45;;;65.63;;
51010;SDS011;37038;50.182;8.624;2023-02-15T05:56:11;188.05;;;65.43;;
51010;SDS011;37038;50.182;8.624;2023-02-15T05:59:01;202.40;;;67.15;;
51010;SDS011;37038;50.182;8.624;2023-02-15T06:01:50;222.98;;;70.22;;
51010;SDS011;37038;50.182;8.624;2023-02-15T06:04:38;191.25;;;62.70;;
51010;SDS011;37038;50.182;8.624;2023-02-15T06:07:32;183.20;;;61.05;;
51010;SDS011;37038;50.182;8.624;2023-02-15T06:10:29;200.75;;;64.68;;
51010;SDS011;37038;50.182;8.624;2023-02-15T06:13:18;199.60;;;65.00;;
51010;SDS011;37038;50.182;8.624;2023-02-15T06:16:08;231.75;;;66.75;;
51010;SDS011;37038;50.182;8.624;2023-02-15T06:18:57;240.90;;;64.35;;
51010;SDS011;37038;50.182;8.624;2023-02-15T06:21:46;237.85;;;68.28;;
51010;SDS011;37038;50.182;8.624;2023-02-15T06:24:35;252.00;;;68.13;;
51010;SDS011;37038;50.182;8.624;2023-02-15T06:27:23;218.77;;;65.03;;
51010;SDS011;37038;50.182;8.624;2023-02-15T06:30:11;240.02;;;66.18;;
51010;SDS011;37038;50.182;8.624;2023-02-15T06:33:00;256.65;;;66.50;;
51010;SDS011;37038;50.182;8.624;2023-02-15T06:35:49;243.48;;;68.30;;
51010;SDS011;37038;50.182;8.624;2023-02-15T06:38:37;248.05;;;69.28;;
51010;SDS011;37038;50.182;8.624;2023-02-15T06:41:25;220.95;;;63.47;;
51010;SDS011;37038;50.182;8.624;2023-02-15T06:44:13;243.73;;;70.38;;
51010;SDS011;37038;50.182;8.624;2023-02-15T06:47:08;298.60;;;74.20;;
51010;SDS011;37038;50.182;8.624;2023-02-15T06:49:55;262.92;;;70.65;;
51010;SDS011;37038;50.182;8.624;2023-02-15T06:52:44;286.38;;;74.43;;
51010;SDS011;37038;50.182;8.624;2023-02-15T06:55:32;268.88;;;71.28;;
51010;SDS011;37038;50.182;8.624;2023-02-15T06:58:23;250.35;;;68.40;;
51010;SDS011;37038;50.182;8.624;2023-02-15T07:01:20;260.00;;;70.97;;
51010;SDS011;37038;50.182;8.624;2023-02-15T07:04:15;292.17;;;75.22;;
51010;SDS011;37038;50.182;8.624;2023-02-15T07:07:09;214.80;;;66.32;;
51010;SDS011;37038;50.182;8.624;2023-02-15T07:09:58;280.98;;;76.15;;
51010;SDS011;37038;50.182;8.624;2023-02-15T07:12:46;248.95;;;73.43;;
51010;SDS011;37038;50.182;8.624;2023-02-15T07:15:33;248.30;;;65.43;;
51010;SDS011;37038;50.182;8.624;2023-02-15T07:18:23;360.15;;;79.50;;
51010;SDS011;37038;50.182;8.624;2023-02-15T07:21:10;306.77;;;74.50;;
51010;SDS011;37038;50.182;8.624;2023-02-15T07:23:58;273.90;;;69.03;;
51010;SDS011;37038;50.182;8.624;2023-02-15T07:26:46;276.88;;;70.20;;
51010;SDS011;37038;50.182;8.624;2023-02-15T07:29:34;307.85;;;70.78;;
51010;SDS011;37038;50.182;8.624;2023-02-15T07:32:21;350.58;;;75.85;;
51010;SDS011;37038;50.182;8.624;2023-02-15T07:35:09;296.58;;;68.75;;
51010;SDS011;37038;50.182;8.624;2023-02-15T07:38:03;344.60;;;78.25;;
51010;SDS011;37038;50.182;8.624;2023-02-15T07:40:51;328.75;;;76.18;;
51010;SDS011;37038;50.182;8.624;2023-02-15T07:43:44;419.63;;;85.43;;
51010;SDS011;37038;50.182;8.624;2023-02-15T07:46:32;407.13;;;82.72;;
51010;SDS011;37038;50.182;8.624;2023-02-15T07:49:22;395.88;;;79.30;;
51010;SDS011;37038;50.182;8.624;2023-02-15T07:52:10;429.17;;;84.88;;
51010;SDS011;37038;50.182;8.624;2023-02-15T07:54:58;415.67;;;82.65;;
51010;SDS011;37038;50.182;8.624;2023-02-15T07:57:46;592.97;;;104.95;;
51010;SDS011;37038;50.182;8.624;2023-02-15T08:00:36;487.00;;;89.25;;
51010;SDS011;37038;50.182;8.624;2023-02-15T08:03:43;526.63;;;95.70;;
51010;SDS011;37038;50.182;8.624;2023-02-15T08:06:35;551.13;;;93.82;;
51010;SDS011;37038;50.182;8.624;2023-02-15T08:09:25;532.17;;;93.38;;
51010;SDS011;37038;50.182;8.624;2023-02-15T08:12:13;595.92;;;98.68;;
51010;SDS011;37038;50.182;8.624;2023-02-15T08:15:01;566.47;;;100.30;;
51010;SDS011;37038;50.182;8.624;2023-02-15T08:17:49;664.15;;;113.22;;
51010;SDS011;37038;50.182;8.624;2023-02-15T08:20:36;562.85;;;104.47;;
51010;SDS011;37038;50.182;8.624;2023-02-15T08:23:24;555.28;;;98.43;;
51010;SDS011;37038;50.182;8.624;2023-02-15T08:26:11;539.75;;;88.85;;
51010;SDS011;37038;50.182;8.624;2023-02-15T08:29:00;457.60;;;86.20;;
51010;SDS011;37038;50.182;8.624;2023-02-15T08:31:53;419.92;;;87.03;;
51010;SDS011;37038;50.182;8.624;2023-02-15T08:34:42;445.25;;;84.55;;
51010;SDS011;37038;50.182;8.624;2023-02-15T08:37:29;340.90;;;71.88;;
51010;SDS011;37038;50.182;8.624;2023-02-15T08:40:18;275.75;;;66.43;;
51010;SDS011;37038;50.182;8.624;2023-02-15T08:43:09;236.75;;;60.15;;
51010;SDS011;37038;50.182;8.624;2023-02-15T08:45:57;238.30;;;62.30;;
51010;SDS011;37038;50.182;8.624;2023-02-15T08:48:48;236.07;;;59.58;;
51010;SDS011;37038;50.182;8.624;2023-02-15T08:51:39;198.40;;;50.72;;
51010;SDS011;37038;50.182;8.624;2023-02-15T08:54:53;175.03;;;44.60;;
51010;SDS011;37038;50.182;8.624;2023-02-15T08:57:44;192.13;;;57.58;;
51010;SDS011;37038;50.182;8.624;2023-02-15T09:00:41;203.77;;;50.70;;
51010;SDS011;37038;50.182;8.624;2023-02-15T09:03:36;195.85;;;52.45;;
51010;SDS011;37038;50.182;8.624;2023-02-15T09:07:26;161.82;;;50.15;;
51010;SDS011;37038;50.182;8.624;2023-02-15T09:10:29;173.98;;;51.10;;
51010;SDS011;37038;50.182;8.624;2023-02-15T09:13:26;256.30;;;58.53;;
51010;SDS011;37038;50.182;8.624;2023-02-15T09:16:58;202.97;;;56.80;;
51010;SDS011;37038;50.182;8.624;2023-02-15T09:19:54;210.27;;;52.22;;
51010;SDS011;37038;50.182;8.624;2023-02-15T09:23:17;163.45;;;49.35;;
51010;SDS011;37038;50.182;8.624;2023-02-15T09:26:24;130.35;;;44.80;;
51010;SDS011;37038;50.182;8.624;2023-02-15T09:29:56;111.40;;;35.30;;
51010;SDS011;37038;50.182;8.624;2023-02-15T09:32:56;125.07;;;43.10;;
51010;SDS011;37038;50.182;8.624;2023-02-15T09:36:20;140.57;;;45.47;;
51010;SDS011;37038;50.182;8.624;2023-02-15T09:39:59;133.68;;;43.53;;
51010;SDS011;37038;50.182;8.624;2023-02-15T09:46:27;126.43;;;44.78;;
51010;SDS011;37038;50.182;8.624;2023-02-15T09:49:47;121.32;;;44.55;;
51010;SDS011;37038;50.182;8.624;2023-02-15T10:00:16;119.18;;;46.33;;
51010;SDS011;37038;50.182;8.624;2023-02-15T10:32:47;95.25;;;42.30;;
51010;SDS011;37038;50.182;8.624;2023-02-15T10:39:52;104.13;;;43.00;;
51010;SDS011;37038;50.182;8.624;2023-02-15T10:53:45;101.53;;;43.10;;
51010;SDS011;37038;50.182;8.624;2023-02-15T10:56:54;111.60;;;46.00;;
51010;SDS011;37038;50.182;8.624;2023-02-15T11:00:09;110.43;;;46.20;;
51010;SDS011;37038;50.182;8.624;2023-02-15T11:10:48;98.60;;;42.00;;
51010;SDS011;37038;50.182;8.624;2023-02-15T11:14:35;93.55;;;42.00;;
51010;SDS011;37038;50.182;8.624;2023-02-15T11:17:50;102.05;;;44.75;;
51010;SDS011;37038;50.182;8.624;2023-02-15T11:21:26;93.22;;;41.47;;
51010;SDS011;37038;50.182;8.624;2023-02-15T11:24:41;94.22;;;40.05;;
51010;SDS011;37038;50.182;8.624;2023-02-15T11:31:16;76.13;;;36.50;;
51010;SDS011;37038;50.182;8.624;2023-02-15T11:37:21;85.20;;;39.38;;
51010;SDS011;37038;50.182;8.624;2023-02-15T11:40:28;80.25;;;37.90;;
51010;SDS011;37038;50.182;8.624;2023-02-15T11:43:31;97.28;;;40.22;;
51010;SDS011;37038;50.182;8.624;2023-02-15T11:46:40;88.15;;;40.05;;
51010;SDS011;37038;50.182;8.624;2023-02-15T11:49:37;96.68;;;42.05;;
51010;SDS011;37038;50.182;8.624;2023-02-15T11:52:34;94.13;;;41.88;;
51010;SDS011;37038;50.182;8.624;2023-02-15T11:55:33;89.05;;;40.60;;
51010;SDS011;37038;50.182;8.624;2023-02-15T11:59:12;91.70;;;40.10;;
51010;SDS011;37038;50.182;8.624;2023-02-15T12:02:31;91.70;;;40.58;;
51010;SDS011;37038;50.182;8.624;2023-02-15T12:16:56;93.90;;;42.05;;
51010;SDS011;37038;50.182;8.624;2023-02-15T12:19:44;94.43;;;40.55;;
51010;SDS011;37038;50.182;8.624;2023-02-15T12:22:36;81.57;;;41.22;;
51010;SDS011;37038;50.182;8.624;2023-02-15T12:34:30;94.32;;;43.67;;
51010;SDS011;37038;50.182;8.624;2023-02-15T12:37:23;97.32;;;43.53;;
51010;SDS011;37038;50.182;8.624;2023-02-15T12:40:21;92.72;;;41.58;;
51010;SDS011;37038;50.182;8.624;2023-02-15T12:43:27;89.00;;;42.67;;
51010;SDS011;37038;50.182;8.624;2023-02-15T12:49:18;106.70;;;45.78;;
51010;SDS011;37038;50.182;8.624;2023-02-15T12:55:18;106.88;;;46.92;;
51010;SDS011;37038;50.182;8.624;2023-02-15T12:58:20;92.93;;;44.60;;
51010;SDS011;37038;50.182;8.624;2023-02-15T13:04:28;113.57;;;47.25;;
51010;SDS011;37038;50.182;8.624;2023-02-15T13:07:16;112.55;;;48.50;;
51010;SDS011;37038;50.182;8.624;2023-02-15T13:10:17;110.75;;;49.33;;
51010;SDS011;37038;50.182;8.624;2023-02-15T13:13:17;116.95;;;50.78;;
51010;SDS011;37038;50.182;8.624;2023-02-15T13:16:10;112.55;;;50.83;;
51010;SDS011;37038;50.182;8.624;2023-02-15T13:19:02;113.05;;;52.17;;
51010;SDS011;37038;50.182;8.624;2023-02-15T13:25:04;114.00;;;48.10;;
51010;SDS011;37038;50.182;8.624;2023-02-15T13:28:03;117.22;;;50.38;;
51010;SDS011;37038;50.182;8.624;2023-02-15T13:30:52;113.85;;;50.22;;
51010;SDS011;37038;50.182;8.624;2023-02-15T13:33:42;119.70;;;52.95;;
51010;SDS011;37038;50.182;8.624;2023-02-15T13:36:37;125.80;;;54.47;;
51010;SDS011;37038;50.182;8.624;2023-02-15T13:39:34;120.22;;;52.05;;
51010;SDS011;37038;50.182;8.624;2023-02-15T13:42:36;116.95;;;52.40;;
51010;SDS011;37038;50.182;8.624;2023-02-15T13:48:56;115.43;;;51.25;;
51010;SDS011;37038;50.182;8.624;2023-02-15T13:52:01;115.68;;;51.92;;
51010;SDS011;37038;50.182;8.624;2023-02-15T13:55:27;116.97;;;54.78;;
51010;SDS011;37038;50.182;8.624;2023-02-15T14:01:55;116.57;;;52.55;;
51010;SDS011;37038;50.182;8.624;2023-02-15T14:05:05;122.65;;;54.97;;
51010;SDS011;37038;50.182;8.624;2023-02-15T14:08:21;113.55;;;51.40;;
51010;SDS011;37038;50.182;8.624;2023-02-15T14:11:21;116.15;;;52.95;;
51010;SDS011;37038;50.182;8.624;2023-02-15T14:18:14;126.32;;;54.83;;
51010;SDS011;37038;50.182;8.624;2023-02-15T14:21:08;132.70;;;57.25;;
51010;SDS011;37038;50.182;8.624;2023-02-15T14:27:14;118.43;;;51.75;;
51010;SDS011;37038;50.182;8.624;2023-02-15T14:30:41;120.13;;;52.75;;
51010;SDS011;37038;50.182;8.624;2023-02-15T14:33:34;113.95;;;53.15;;
51010;SDS011;37038;50.182;8.624;2023-02-15T14:45:41;97.80;;;43.40;;
51010;SDS011;37038;50.182;8.624;2023-02-15T14:48:45;113.07;;;52.60;;
51010;SDS011;37038;50.182;8.624;2023-02-15T14:57:23;111.45;;;51.17;;
51010;SDS011;37038;50.182;8.624;2023-02-15T15:00:32;116.30;;;51.70;;
51010;SDS011;37038;50.182;8.624;2023-02-15T15:03:24;117.63;;;52.35;;
51010;SDS011;37038;50.182;8.624;2023-02-15T15:06:54;128.52;;;56.65;;
51010;SDS011;37038;50.182;8.624;2023-02-15T15:09:29;111.75;;;52.28;;
51010;SDS011;37038;50.182;8.624;2023-02-15T15:12:36;112.38;;;52.33;;
51010;SDS011;37038;50.182;8.624;2023-02-15T15:33:24;123.75;;;52.40;;
51010;SDS011;37038;50.182;8.624;2023-02-15T15:36:47;124.28;;;54.72;;
51010;SDS011;37038;50.182;8.624;2023-02-15T15:49:34;129.27;;;55.15;;
51010;SDS011;37038;50.182;8.624;2023-02-15T15:52:24;121.25;;;51.97;;
51010;SDS011;37038;50.182;8.624;2023-02-15T15:55:22;118.28;;;52.17;;
51010;SDS011;37038;50.182;8.624;2023-02-15T15:58:12;125.10;;;54.85;;
51010;SDS011;37038;50.182;8.624;2023-02-15T16:01:04;128.32;;;56.30;;
51010;SDS011;37038;50.182;8.624;2023-02-15T16:03:56;130.60;;;54.47;;
51010;SDS011;37038;50.182;8.624;2023-02-15T16:06:45;125.88;;;54.83;;
51010;SDS011;37038;50.182;8.624;2023-02-15T16:09:33;126.30;;;53.72;;
51010;SDS011;37038;50.182;8.624;2023-02-15T16:12:21;131.00;;;55.80;;
51010;SDS011;37038;50.182;8.624;2023-02-15T16:15:21;146.63;;;60.80;;
51010;SDS011;37038;50.182;8.624;2023-02-15T16:18:15;158.73;;;62.15;;
51010;SDS011;37038;50.182;8.624;2023-02-15T16:21:04;156.07;;;63.88;;
51010;SDS011;37038;50.182;8.624;2023-02-15T16:29:51;167.68;;;64.75;;
51010;SDS011;37038;50.182;8.624;2023-02-15T16:32:38;167.45;;;62.88;;
51010;SDS011;37038;50.182;8.624;2023-02-15T16:35:26;157.65;;;62.15;;
51010;SDS011;37038;50.182;8.624;2023-02-15T16:38:13;161.50;;;63.38;;
51010;SDS011;37038;50.182;8.624;2023-02-15T16:41:02;165.93;;;67.13;;
51010;SDS011;37038;50.182;8.624;2023-02-15T16:43:50;161.75;;;66.85;;
51010;SDS011;37038;50.182;8.624;2023-02-15T16:46:41;169.55;;;68.55;;
51010;SDS011;37038;50.182;8.624;2023-02-15T16:49:32;169.30;;;64.70;;
51010;SDS011;37038;50.182;8.624;2023-02-15T16:52:22;166.07;;;67.57;;
51010;SDS011;37038;50.182;8.624;2023-02-15T16:55:19;162.77;;;67.78;;
51010;SDS011;37038;50.182;8.624;2023-02-15T16:58:15;150.20;;;64.57;;
51010;SDS011;37038;50.182;8.624;2023-02-15T17:01:05;154.48;;;64.22;;
51010;SDS011;37038;50.182;8.624;2023-02-15T17:10:16;144.25;;;61.65;;
51010;SDS011;37038;50.182;8.624;2023-02-15T17:13:18;148.60;;;61.47;;
51010;SDS011;37038;50.182;8.624;2023-02-15T17:16:34;139.40;;;62.97;;
51010;SDS011;37038;50.182;8.624;2023-02-15T17:19:52;141.93;;;65.18;;
51010;SDS011;37038;50.182;8.624;2023-02-15T17:22:48;142.45;;;64.10;;
51010;SDS011;37038;50.182;8.624;2023-02-15T17:25:56;134.50;;;62.70;;
51010;SDS011;37038;50.182;8.624;2023-02-15T17:28:52;144.15;;;63.83;;
51010;SDS011;37038;50.182;8.624;2023-02-15T17:31:51;152.45;;;65.70;;
51010;SDS011;37038;50.182;8.624;2023-02-15T17:37:50;148.10;;;61.22;;
51010;SDS011;37038;50.182;8.624;2023-02-15T17:40:49;154.60;;;63.85;;
51010;SDS011;37038;50.182;8.624;2023-02-15T17:43:37;145.38;;;61.15;;
51010;SDS011;37038;50.182;8.624;2023-02-15T17:46:25;137.18;;;59.58;;
51010;SDS011;37038;50.182;8.624;2023-02-15T17:49:22;142.88;;;60.08;;
51010;SDS011;37038;50.182;8.624;2023-02-15T17:52:23;144.05;;;61.70;;
51010;SDS011;37038;50.182;8.624;2023-02-15T17:55:23;154.38;;;61.72;;
51010;SDS011;37038;50.182;8.624;2023-02-15T17:58:28;161.32;;;66.60;;
51010;SDS011;37038;50.182;8.624;2023-02-15T18:01:36;164.23;;;65.80;;
51010;SDS011;37038;50.182;8.624;2023-02-15T18:05:25;161.23;;;66.63;;
51010;SDS011;37038;50.182;8.624;2023-02-15T18:08:54;151.40;;;60.85;;
51010;SDS011;37038;50.182;8.624;2023-02-15T18:15:08;148.10;;;62.45;;
51010;SDS011;37038;50.182;8.624;2023-02-15T18:18:08;148.60;;;61.83;;
51010;SDS011;37038;50.182;8.624;2023-02-15T18:21:17;161.95;;;66.10;;
51010;SDS011;37038;50.182;8.624;2023-02-15T18:24:10;154.70;;;65.90;;
51010;SDS011;37038;50.182;8.624;2023-02-15T18:27:13;147.25;;;59.88;;
51010;SDS011;37038;50.182;8.624;2023-02-15T18:30:15;151.57;;;62.65;;
51010;SDS011;37038;50.182;8.624;2023-02-15T18:33:05;151.55;;;65.18;;
51010;SDS011;37038;50.182;8.624;2023-02-15T18:36:14;158.52;;;65.82;;
51010;SDS011;37038;50.182;8.624;2023-02-15T18:39:25;153.73;;;64.88;;
51010;SDS011;37038;50.182;8.624;2023-02-15T18:42:27;157.93;;;66.63;;
51010;SDS011;37038;50.182;8.624;2023-02-15T18:45:24;144.25;;;63.20;;
51010;SDS011;37038;50.182;8.624;2023-02-15T18:48:19;163.40;;;65.40;;
51010;SDS011;37038;50.182;8.624;2023-02-15T18:51:15;159.65;;;66.47;;
51010;SDS011;37038;50.182;8.624;2023-02-15T18:54:26;158.85;;;67.85;;
51010;SDS011;37038;50.182;8.624;2023-02-15T18:57:14;158.23;;;65.05;;
51010;SDS011;37038;50.182;8.624;2023-02-15T19:00:02;162.88;;;65.57;;
51010;SDS011;37038;50.182;8.624;2023-02-15T19:02:55;168.15;;;65.22;;
51010;SDS011;37038;50.182;8.624;2023-02-15T19:05:43;158.20;;;68.53;;
51010;SDS011;37038;50.182;8.624;2023-02-15T19:08:33;174.85;;;74.00;;
51010;SDS011;37038;50.182;8.624;2023-02-15T19:11:21;167.52;;;71.07;;
51010;SDS011;37038;50.182;8.624;2023-02-15T19:14:19;158.07;;;67.28;;
51010;SDS011;37038;50.182;8.624;2023-02-15T19:17:18;162.50;;;66.53;;
51010;SDS011;37038;50.182;8.624;2023-02-15T19:20:13;149.32;;;62.22;;
51010;SDS011;37038;50.182;8.624;2023-02-15T19:23:02;148.18;;;63.50;;
51010;SDS011;37038;50.182;8.624;2023-02-15T19:26:10;155.35;;;66.25;;
51010;SDS011;37038;50.182;8.624;2023-02-15T19:28:59;146.75;;;64.38;;
51010;SDS011;37038;50.182;8.624;2023-02-15T19:31:47;154.57;;;64.97;;
51010;SDS011;37038;50.182;8.624;2023-02-15T19:34:35;150.50;;;63.42;;
51010;SDS011;37038;50.182;8.624;2023-02-15T19:37:24;165.38;;;68.25;;
51010;SDS011;37038;50.182;8.624;2023-02-15T19:40:22;175.02;;;72.55;;
51010;SDS011;37038;50.182;8.624;2023-02-15T19:43:19;176.57;;;72.00;;
51010;SDS011;37038;50.182;8.624;2023-02-15T19:46:14;183.23;;;71.40;;
51010;SDS011;37038;50.182;8.624;2023-02-15T19:49:05;179.65;;;71.15;;
51010;SDS011;37038;50.182;8.624;2023-02-15T19:51:52;186.27;;;76.50;;
51010;SDS011;37038;50.182;8.624;2023-02-15T19:54:41;204.38;;;74.65;;
51010;SDS011;37038;50.182;8.624;2023-02-15T19:57:32;189.05;;;74.78;;
51010;SDS011;37038;50.182;8.624;2023-02-15T20:00:25;183.70;;;73.32;;
51010;SDS011;37038;50.182;8.624;2023-02-15T20:03:23;190.25;;;70.90;;
51010;SDS011;37038;50.182;8.624;2023-02-15T20:06:15;213.55;;;78.80;;
51010;SDS011;37038;50.182;8.624;2023-02-15T20:09:03;206.30;;;73.32;;